Terminal Aerodrome Forecast
Issued by NWS Mt. Holly, NJ

Current Version | Previous Version | Text Only | Print | Product List | Glossary On
Versions: 1 2 3 4 5 6 7 8 9 10 11 12 13 14 15 16 17 18 19 20 21 22 23 24 25
306
FTUS41 KPHI 241120
TAFILG
TAF
KILG 241120Z 2412/2512 32005KT 5SM BR SCT120
      TEMPO 2412/2413 3SM BR
     FM241400 33005KT P6SM SCT050 BKN200
     FM241800 30010KT P6SM FEW050 BKN200
     FM242200 29008KT P6SM SCT200
     FM250200 27004KT P6SM SKC=

USA.gov is the U.S. government's official web portal to all federal, state and local government web resources and services.